createdAt,value
2022-08-04T00:01:15.406Z,19.44
2022-08-04T00:04:19.752Z,19.32
2022-08-04T00:07:00.781Z,19.22
2022-08-04T00:10:09.737Z,19.11
2022-08-04T00:12:47.793Z,18.84
2022-08-04T00:15:24.486Z,18.86
2022-08-04T00:18:13.300Z,19.12
2022-08-04T00:20:45.388Z,18.99
2022-08-04T00:23:23.207Z,19.14
2022-08-04T00:26:02.535Z,19.17
2022-08-04T00:28:34.673Z,19.44
2022-08-04T00:31:15.055Z,19.27
2022-08-04T00:33:51.212Z,19.23
2022-08-04T00:36:43.972Z,19.24
2022-08-04T00:39:16.601Z,18.88
2022-08-04T00:42:11.546Z,18.89
2022-08-04T00:44:57.997Z,18.89
2022-08-04T00:48:07.785Z,19.02
2022-08-04T00:51:20.324Z,18.94
2022-08-04T00:54:15.095Z,18.70
2022-08-04T00:57:01.787Z,19.01
2022-08-04T00:59:59.457Z,19.35
2022-08-04T01:03:00.658Z,19.12
2022-08-04T01:06:08.969Z,19.10
2022-08-04T01:09:08.775Z,18.87
2022-08-04T01:12:06.842Z,19.03
2022-08-04T01:15:18.290Z,18.97
2022-08-04T01:18:18.339Z,18.77
2022-08-04T01:21:24.270Z,18.66
2022-08-04T01:24:21.853Z,18.60
2022-08-04T01:27:16.291Z,18.60
2022-08-04T01:30:01.544Z,18.73
2022-08-04T01:33:01.565Z,18.62
2022-08-04T01:35:47.813Z,18.99
2022-08-04T01:38:46.593Z,18.78
2022-08-04T01:41:19.395Z,18.58
2022-08-04T01:44:11.473Z,18.59
2022-08-04T01:46:50.158Z,18.43
2022-08-04T01:49:23.106Z,18.37
2022-08-04T01:51:55.418Z,18.61
2022-08-04T01:54:27.907Z,18.38
2022-08-04T01:57:00.632Z,17.86
2022-08-04T01:59:56.380Z,18.24
2022-08-04T02:02:27.719Z,18.43
2022-08-04T02:05:06.746Z,18.25
2022-08-04T02:07:46.222Z,18.43
2022-08-04T02:10:34.330Z,18.49
2022-08-04T02:13:49.096Z,18.70
2022-08-04T02:16:52.427Z,18.57
2022-08-04T02:19:25.250Z,18.47
2022-08-04T02:22:05.429Z,18.41
2022-08-04T02:24:44.107Z,18.26
2022-08-04T02:27:18.301Z,18.31
2022-08-04T02:29:52.166Z,18.20
2022-08-04T02:32:43.222Z,17.96
2022-08-04T02:35:29.577Z,17.68
2022-08-04T02:38:41.148Z,17.74
2022-08-04T02:41:13.704Z,17.77
2022-08-04T02:43:51.642Z,17.61
2022-08-04T02:46:23.089Z,17.69
2022-08-04T02:52:05.653Z,17.38
2022-08-04T02:54:52.348Z,17.84
2022-08-04T02:57:33.933Z,18.01
2022-08-04T03:00:17.677Z,17.77
2022-08-04T03:03:06.358Z,17.97
2022-08-04T03:06:01.482Z,18.18
2022-08-04T03:09:06.650Z,18.01
2022-08-04T03:12:15.569Z,17.69
2022-08-04T03:15:14.445Z,17.87
2022-08-04T03:18:17.081Z,18.17
2022-08-04T03:21:21.987Z,17.94
2022-08-04T03:24:49.553Z,17.85
2022-08-04T03:28:04.743Z,17.75
2022-08-04T03:31:06.229Z,17.56
2022-08-04T03:34:13.987Z,17.49
2022-08-04T03:36:50.409Z,17.56
2022-08-04T03:40:03.156Z,17.57
2022-08-04T03:43:09.670Z,17.60
2022-08-04T03:46:30.910Z,17.13
2022-08-04T03:49:35.036Z,17.48
2022-08-04T03:52:24.388Z,17.66
2022-08-04T03:55:28.714Z,17.72
2022-08-04T03:58:30.497Z,17.72
2022-08-04T04:02:02.582Z,17.95
2022-08-04T04:05:04.626Z,17.65
2022-08-04T04:08:01.758Z,17.36
2022-08-04T04:11:12.668Z,17.80
2022-08-04T04:14:15.341Z,17.44
2022-08-04T04:17:14.255Z,17.44
2022-08-04T04:20:16.455Z,17.67
2022-08-04T04:23:38.913Z,17.73
2022-08-04T04:27:04.709Z,17.83
2022-08-04T04:30:02.380Z,17.92
2022-08-04T04:32:34.952Z,17.71
2022-08-04T04:35:36.411Z,17.76
2022-08-04T04:38:32.851Z,17.84
2022-08-04T04:41:47.337Z,17.76
2022-08-04T04:44:49.891Z,17.77
2022-08-04T04:48:09.201Z,17.84
2022-08-04T04:51:22.545Z,17.87
2022-08-04T04:54:41.676Z,17.94
2022-08-04T04:57:19.904Z,18.04
2022-08-04T05:00:07.348Z,18.31
2022-08-04T05:06:54.519Z,18.07
2022-08-04T05:10:10.223Z,18.44
2022-08-04T05:14:34.836Z,18.52
2022-08-04T05:16:22.966Z,18.71
2022-08-04T05:22:25.977Z,18.94
2022-08-04T05:25:10.957Z,18.99
2022-08-04T05:28:18.005Z,19.33
2022-08-04T05:31:23.258Z,19.27
2022-08-04T05:34:30.697Z,19.58
2022-08-04T05:37:33.982Z,19.50
2022-08-04T05:40:25.816Z,19.49
2022-08-04T05:42:56.891Z,19.68
2022-08-04T05:45:27.073Z,19.75
2022-08-04T05:48:18.510Z,19.89
2022-08-04T05:51:03.745Z,19.94
2022-08-04T05:53:33.953Z,19.82
2022-08-04T05:56:09.938Z,19.84
2022-08-04T05:58:39.785Z,19.99
2022-08-04T06:01:11.987Z,20.00
2022-08-04T06:03:43.597Z,20.26
2022-08-04T06:06:21.086Z,20.43
2022-08-04T06:08:54.890Z,20.46
2022-08-04T06:11:26.781Z,20.54
2022-08-04T06:14:04.747Z,20.62
2022-08-04T06:16:51.399Z,20.64
2022-08-04T06:19:59.695Z,20.92
2022-08-04T06:22:20.367Z,21.04
2022-08-04T06:25:01.777Z,21.06
2022-08-04T06:27:35.888Z,21.41
2022-08-04T06:30:29.708Z,21.62
2022-08-04T06:33:26.948Z,21.63
2022-08-04T06:36:04.137Z,21.67
2022-08-04T06:38:44.971Z,21.95
2022-08-04T06:41:19.333Z,22.13
2022-08-04T06:43:53.422Z,22.02
2022-08-04T06:46:27.608Z,22.09
2022-08-04T06:49:06.838Z,22.16
2022-08-04T06:51:49.237Z,22.29
2022-08-04T06:54:24.419Z,22.62
2022-08-04T06:57:10.406Z,22.65
2022-08-04T06:59:47.115Z,22.65
2022-08-04T07:02:34.770Z,22.83
2022-08-04T07:05:07.897Z,22.78
2022-08-04T07:07:58.110Z,22.91
2022-08-04T07:10:39.378Z,23.13
2022-08-04T07:13:17.186Z,23.02
2022-08-04T07:15:49.913Z,23.26
2022-08-04T07:18:18.481Z,23.34
2022-08-04T07:20:48.464Z,23.57
2022-08-04T07:23:31.656Z,23.55
2022-08-04T07:26:16.515Z,23.59
2022-08-04T07:28:53.342Z,23.67
2022-08-04T07:31:33.022Z,23.90
2022-08-04T07:34:20.761Z,23.97
2022-08-04T07:37:02.822Z,24.13
2022-08-04T07:39:48.107Z,24.08
2022-08-04T07:42:25.239Z,24.41
2022-08-04T07:45:05.849Z,24.39
2022-08-04T07:48:04.816Z,24.49
2022-08-04T07:50:44.752Z,24.91
2022-08-04T07:53:55.343Z,24.99
2022-08-04T07:56:06.281Z,25.06
2022-08-04T07:58:35.671Z,25.19
2022-08-04T08:01:10.661Z,25.40
2022-08-04T08:03:43.589Z,25.65
2022-08-04T08:06:33.191Z,25.31
2022-08-04T08:09:13.628Z,25.27
2022-08-04T08:12:38.401Z,25.60
2022-08-04T08:14:44.691Z,25.84
2022-08-04T08:17:18.725Z,25.90
2022-08-04T08:19:52.191Z,26.04
2022-08-04T08:22:22.425Z,25.85
2022-08-04T08:24:55.590Z,25.99
2022-08-04T08:27:25.916Z,26.14
2022-08-04T08:29:56.818Z,26.49
2022-08-04T08:32:30.692Z,26.64
2022-08-04T08:35:01.431Z,26.40
2022-08-04T08:38:04.477Z,26.39
2022-08-04T08:41:32.865Z,26.53
2022-08-04T08:44:45.562Z,26.83
2022-08-04T08:48:04.831Z,26.70
2022-08-04T08:51:01.866Z,27.02
2022-08-04T08:54:00.315Z,26.96
2022-08-04T08:56:55.795Z,27.37
2022-08-04T08:59:50.726Z,27.42
2022-08-04T09:03:19.556Z,27.52
2022-08-04T09:06:16.666Z,27.72
2022-08-04T09:09:24.526Z,27.77
2022-08-04T09:15:51.176Z,28.11
2022-08-04T09:19:03.551Z,28.07
2022-08-04T09:21:55.023Z,28.81
2022-08-04T09:24:36.281Z,28.71
2022-08-04T09:27:47.398Z,28.90
2022-08-04T09:30:23.078Z,28.91
2022-08-04T09:32:55.015Z,29.15
2022-08-04T09:36:12.060Z,29.15
2022-08-04T09:38:56.700Z,29.47
2022-08-04T09:42:16.978Z,29.52
2022-08-04T09:45:26.520Z,29.68
2022-08-04T09:48:18.941Z,29.96
2022-08-04T09:51:00.648Z,29.99
2022-08-04T09:54:02.170Z,29.62
2022-08-04T09:56:47.295Z,29.92
2022-08-04T09:59:37.887Z,30.42
2022-08-04T10:02:11.693Z,30.54
2022-08-04T10:04:50.138Z,30.69
2022-08-04T10:07:33.767Z,30.67
2022-08-04T10:10:40.746Z,30.76
2022-08-04T10:13:32.879Z,31.19
2022-08-04T10:16:37.926Z,31.23
2022-08-04T10:19:36.480Z,31.34
2022-08-04T10:22:29.739Z,31.22
2022-08-04T10:26:05.486Z,31.44
2022-08-04T10:28:50.105Z,30.98
2022-08-04T10:31:28.049Z,31.69
2022-08-04T10:34:03.499Z,31.79
2022-08-04T10:36:56.219Z,31.70
2022-08-04T10:39:44.806Z,31.46
2022-08-04T10:42:37.246Z,31.75
2022-08-04T10:45:22.637Z,32.17
2022-08-04T10:48:05.808Z,32.36
2022-08-04T10:50:55.448Z,32.33
2022-08-04T10:53:36.912Z,32.53
2022-08-04T10:56:20.930Z,32.97
2022-08-04T10:59:05.914Z,32.99
2022-08-04T11:02:01.006Z,32.94
2022-08-04T11:04:47.837Z,33.00
2022-08-04T11:07:36.617Z,33.06
2022-08-04T11:10:07.756Z,33.63
2022-08-04T11:12:41.562Z,33.67
2022-08-04T11:15:24.791Z,32.99
2022-08-04T11:18:16.564Z,32.37
2022-08-04T11:21:23.750Z,32.07
2022-08-04T11:24:09.977Z,32.30
2022-08-04T11:26:55.078Z,32.28
2022-08-04T11:30:00.159Z,32.74
2022-08-04T11:32:54.531Z,32.66
2022-08-04T11:35:40.733Z,32.93
2022-08-04T11:39:08.336Z,33.38
2022-08-04T11:41:52.931Z,34.00
2022-08-04T11:44:58.910Z,33.75
2022-08-04T11:48:01.058Z,33.92
2022-08-04T11:50:53.838Z,34.77
2022-08-04T11:53:36.770Z,34.56
2022-08-04T11:56:35.843Z,34.38
2022-08-04T11:59:20.022Z,33.37
2022-08-04T12:02:39.435Z,33.85
2022-08-04T12:05:33.598Z,33.69
2022-08-04T12:08:36.791Z,34.30
2022-08-04T12:11:20.752Z,34.59
2022-08-04T12:14:35.627Z,34.67
2022-08-04T12:17:24.842Z,34.49
2022-08-04T12:20:40.343Z,34.03
2022-08-04T12:22:59.827Z,33.68
2022-08-04T12:25:45.114Z,33.71
2022-08-04T12:31:50.311Z,33.67
2022-08-04T12:34:40.951Z,34.07
2022-08-04T12:37:32.023Z,34.29
2022-08-04T12:40:30.278Z,34.15
2022-08-04T12:43:17.273Z,34.15
2022-08-04T12:45:57.788Z,33.95
2022-08-04T12:48:30.797Z,34.18
2022-08-04T12:51:03.782Z,33.95
2022-08-04T12:53:51.303Z,34.50
2022-08-04T12:56:32.832Z,34.37
2022-08-04T12:59:17.113Z,34.80
2022-08-04T13:02:09.427Z,35.12
2022-08-04T13:04:52.156Z,35.39
2022-08-04T13:08:01.315Z,36.32
2022-08-04T13:10:47.281Z,36.28
2022-08-04T13:13:31.058Z,35.57
2022-08-04T13:16:22.970Z,35.90
2022-08-04T13:18:54.268Z,35.79
2022-08-04T13:21:49.988Z,36.19
2022-08-04T13:27:29.607Z,36.68
2022-08-04T13:30:24.273Z,36.00
2022-08-04T13:30:38.353Z,36.72
2022-08-04T13:33:14.592Z,36.95
2022-08-04T13:35:56.875Z,37.49
2022-08-04T13:38:30.835Z,37.32
2022-08-04T13:41:15.916Z,36.46
2022-08-04T13:44:18.119Z,36.25
2022-08-04T13:47:01.325Z,37.16
2022-08-04T13:49:42.438Z,37.17
2022-08-04T13:52:27.616Z,36.63
2022-08-04T13:54:56.722Z,36.08
2022-08-04T13:57:42.829Z,36.55
2022-08-04T14:00:29.472Z,37.72
2022-08-04T14:03:19.071Z,39.42
2022-08-04T14:06:29.769Z,43.01
2022-08-04T14:09:35.601Z,43.16
2022-08-04T14:12:38.589Z,42.82
2022-08-04T14:16:02.443Z,43.39
2022-08-04T14:18:45.825Z,44.35
2022-08-04T14:21:19.110Z,42.24
2022-08-04T14:24:00.572Z,42.90
2022-08-04T14:26:40.140Z,43.08
2022-08-04T14:29:29.277Z,43.85
2022-08-04T14:32:15.041Z,43.47
2022-08-04T14:34:54.455Z,43.69
2022-08-04T14:37:48.721Z,43.47
2022-08-04T14:40:39.822Z,43.67
2022-08-04T14:43:22.084Z,43.80
2022-08-04T14:46:05.513Z,42.76
2022-08-04T14:48:42.715Z,43.57
2022-08-04T14:51:36.649Z,43.78
2022-08-04T14:54:12.100Z,42.94
2022-08-04T14:56:54.293Z,43.37
2022-08-04T14:59:25.415Z,42.71
2022-08-04T15:02:07.210Z,43.02
2022-08-04T15:04:40.434Z,43.07
2022-08-04T15:07:17.299Z,42.67
2022-08-04T15:09:50.812Z,42.04
2022-08-04T15:17:48.707Z,40.44
2022-08-04T15:20:20.855Z,41.30
2022-08-04T15:22:55.270Z,42.49
2022-08-04T15:25:32.975Z,43.22
2022-08-04T15:28:18.045Z,43.03
2022-08-04T15:30:54.338Z,41.92
2022-08-04T15:33:33.795Z,42.28
2022-08-04T15:37:03.189Z,41.72
2022-08-04T15:40:00.025Z,43.01
2022-08-04T15:42:39.967Z,44.13
2022-08-04T15:48:08.477Z,41.40
2022-08-04T15:50:52.174Z,41.64
2022-08-04T15:54:02.323Z,43.05
2022-08-04T15:56:31.308Z,44.37
2022-08-04T15:59:02.180Z,43.53
2022-08-04T16:01:38.581Z,43.83
2022-08-04T16:04:32.405Z,42.03
2022-08-04T16:07:13.597Z,40.16
2022-08-04T16:09:46.652Z,40.23
2022-08-04T16:13:03.523Z,38.27
2022-08-04T16:16:05.961Z,38.20
2022-08-04T16:18:44.177Z,37.78
2022-08-04T16:21:44.057Z,36.97
2022-08-04T16:24:35.088Z,37.07
2022-08-04T16:27:21.348Z,36.62
2022-08-04T16:30:20.551Z,36.33
2022-08-04T16:32:53.389Z,36.43
2022-08-04T16:35:28.946Z,35.39
2022-08-04T16:38:20.507Z,35.51
2022-08-04T16:41:12.525Z,35.59
2022-08-04T16:43:42.080Z,35.24
2022-08-04T16:47:08.428Z,35.10
2022-08-04T16:49:50.210Z,35.04
2022-08-04T16:52:27.717Z,34.75
2022-08-04T16:55:05.796Z,34.44
2022-08-04T16:57:39.954Z,34.59
2022-08-04T17:00:10.774Z,34.03
2022-08-04T17:02:45.281Z,34.05
2022-08-04T17:05:37.930Z,34.10
2022-08-04T17:08:29.653Z,34.07
2022-08-04T17:11:05.483Z,33.85
2022-08-04T17:14:04.778Z,33.58
2022-08-04T17:16:44.273Z,33.45
2022-08-04T17:19:24.481Z,33.30
2022-08-04T17:22:06.314Z,33.22
2022-08-04T17:24:44.104Z,33.10
2022-08-04T17:28:08.658Z,32.96
2022-08-04T17:30:11.268Z,32.80
2022-08-04T17:32:51.651Z,32.71
2022-08-04T17:35:38.833Z,32.46
2022-08-04T17:38:08.890Z,32.25
2022-08-04T17:41:19.139Z,32.29
2022-08-04T17:44:07.590Z,32.25
2022-08-04T17:46:49.055Z,32.15
2022-08-04T17:49:30.037Z,31.94
2022-08-04T17:52:44.974Z,31.65
2022-08-04T17:55:20.629Z,31.05
2022-08-04T17:57:53.061Z,30.79
2022-08-04T18:00:25.344Z,30.87
2022-08-04T18:03:07.440Z,30.80
2022-08-04T18:06:01.783Z,30.52
2022-08-04T18:08:50.064Z,30.45
2022-08-04T18:11:41.996Z,30.20
2022-08-04T18:14:25.875Z,30.15
2022-08-04T18:18:19.703Z,29.86
2022-08-04T18:20:08.214Z,29.75
2022-08-04T18:22:46.956Z,29.52
2022-08-04T18:25:50.521Z,29.32
2022-08-04T18:28:26.874Z,29.05
2022-08-04T18:30:58.106Z,28.69
2022-08-04T18:33:40.286Z,28.47
2022-08-04T18:36:35.340Z,28.44
2022-08-04T18:39:18.491Z,28.22
2022-08-04T18:42:16.111Z,28.27
2022-08-04T18:44:53.929Z,27.95
2022-08-04T18:47:30.015Z,28.25
2022-08-04T18:51:00.634Z,27.88
2022-08-04T18:53:12.169Z,27.69
2022-08-04T18:55:57.047Z,27.31
2022-08-04T18:58:27.997Z,27.19
2022-08-04T19:01:03.178Z,27.15
2022-08-04T19:03:52.277Z,27.15
2022-08-04T19:06:28.325Z,27.13
2022-08-04T19:09:16.221Z,27.19
2022-08-04T19:11:55.293Z,27.20
2022-08-04T19:14:29.225Z,27.20
2022-08-04T19:17:05.542Z,27.14
2022-08-04T19:19:50.156Z,27.14
2022-08-04T19:22:36.143Z,27.20
2022-08-04T19:25:13.746Z,26.93
2022-08-04T19:28:17.426Z,26.62
2022-08-04T19:30:54.985Z,26.61
2022-08-04T19:33:55.304Z,26.34
2022-08-04T19:36:39.377Z,26.43
2022-08-04T19:39:18.720Z,25.97
2022-08-04T19:42:05.572Z,25.82
2022-08-04T19:44:37.369Z,25.66
2022-08-04T19:48:16.475Z,25.73
2022-08-04T19:50:10.786Z,25.85
2022-08-04T19:52:51.413Z,25.80
2022-08-04T19:55:40.652Z,25.97
2022-08-04T19:58:26.167Z,25.88
2022-08-04T20:00:58.365Z,25.75
2022-08-04T20:04:10.212Z,25.25
2022-08-04T20:06:28.926Z,24.83
2022-08-04T20:09:25.023Z,25.01
2022-08-04T20:12:15.568Z,24.81
2022-08-04T20:14:46.173Z,24.83
2022-08-04T20:18:07.697Z,24.91
2022-08-04T20:20:13.398Z,24.16
2022-08-04T20:22:52.976Z,24.48
2022-08-04T20:25:36.289Z,24.56
2022-08-04T20:28:25.814Z,24.65
2022-08-04T20:31:04.671Z,24.45
2022-08-04T20:36:32.762Z,24.43
2022-08-04T20:39:03.760Z,24.40
2022-08-04T20:41:45.732Z,24.31
2022-08-04T20:44:24.081Z,24.11
2022-08-04T20:47:09.733Z,23.78
2022-08-04T20:49:46.114Z,23.73
2022-08-04T20:52:28.764Z,23.96
2022-08-04T20:55:00.233Z,24.20
2022-08-04T20:57:49.565Z,24.21
2022-08-04T21:00:35.603Z,23.77
2022-08-04T21:03:13.533Z,23.77
2022-08-04T21:05:47.644Z,23.61
2022-08-04T21:08:19.808Z,23.67
2022-08-04T21:10:58.333Z,23.44
2022-08-04T21:13:44.453Z,23.82
2022-08-04T21:19:24.565Z,23.33
2022-08-04T21:21:56.990Z,23.00
2022-08-04T21:24:30.884Z,23.10
2022-08-04T21:27:02.282Z,23.32
2022-08-04T21:29:42.610Z,23.28
2022-08-04T21:32:21.978Z,22.79
2022-08-04T21:35:05.364Z,22.94
2022-08-04T21:37:58.345Z,22.77
2022-08-04T21:40:53.801Z,22.86
2022-08-04T21:43:43.081Z,22.96
2022-08-04T21:46:15.166Z,22.69
2022-08-04T21:48:53.229Z,22.45
2022-08-04T21:52:00.760Z,22.32
2022-08-04T21:54:32.830Z,22.51
2022-08-04T21:57:06.367Z,22.51
2022-08-04T21:59:45.830Z,22.39
2022-08-04T22:02:16.349Z,22.19
2022-08-04T22:04:49.515Z,22.47
2022-08-04T22:07:18.488Z,22.22
2022-08-04T22:10:00.573Z,22.47
2022-08-04T22:12:34.552Z,22.56
2022-08-04T22:15:23.172Z,22.45
2022-08-04T22:18:08.804Z,22.78
2022-08-04T22:20:43.394Z,22.66
2022-08-04T22:23:27.924Z,22.45
2022-08-04T22:25:58.409Z,22.18
2022-08-04T22:28:30.545Z,22.25
2022-08-04T22:31:23.543Z,22.08
2022-08-04T22:34:07.034Z,21.80
2022-08-04T22:36:48.169Z,21.95
2022-08-04T22:39:23.513Z,22.10
2022-08-04T22:42:04.198Z,21.99
2022-08-04T22:44:39.629Z,22.28
2022-08-04T22:47:10.459Z,22.26
2022-08-04T22:50:13.817Z,22.24
2022-08-04T22:52:56.252Z,22.44
2022-08-04T22:56:07.195Z,22.26
2022-08-04T22:58:30.953Z,21.75
2022-08-04T23:01:04.513Z,21.51
2022-08-04T23:03:39.034Z,21.63
2022-08-04T23:06:10.989Z,21.78
2022-08-04T23:08:52.529Z,21.15
2022-08-04T23:11:23.681Z,21.21
2022-08-04T23:14:03.092Z,21.47
2022-08-04T23:16:40.815Z,21.08
2022-08-04T23:19:15.369Z,21.17
2022-08-04T23:22:00.828Z,21.17
2022-08-04T23:24:33.483Z,21.17
2022-08-04T23:27:21.333Z,20.96
2022-08-04T23:30:01.002Z,21.20
2022-08-04T23:32:32.865Z,21.17
2022-08-04T23:35:02.938Z,20.93
2022-08-04T23:37:57.288Z,21.03
2022-08-04T23:40:34.744Z,21.56
2022-08-04T23:43:24.951Z,21.65
2022-08-04T23:46:19.114Z,21.24
2022-08-04T23:48:53.449Z,20.96
2022-08-04T23:51:22.344Z,20.73
2022-08-04T23:54:03.393Z,20.82
2022-08-04T23:56:42.040Z,21.08
2022-08-04T23:59:49.149Z,21.29
